Private Wetterstation Wechselburg
Wetterdaten: Montag, 06.09.2021
Datum Zeit Temp. +2m Bodentemp. Temp.+5cm Temp. Wind Windchill X Diff Temp. Feuchte +2m Feuchte +5cm Luftdruck Regen Wind Richtung Richtung Sonnenschein Taupunkt Windchill Windben
06.09.2021 00:00 12,8 C 18,2 C 13,7 C 13,4 C 13,4 C 0,6 C 86 % 93 % 1020,4 hPa 0,0 l/m 0,0 km/h (0 Bft) S 180 0 min 10,5 C 13,4 C 0,0 km/h (0 Bft)
06.09.2021 00:05 12,7 C 18,2 C 13,6 C 13,4 C 13,4 C 0,7 C 86 % 93 % 1020,4 hPa 0,0 l/m 0,0 km/h (0 Bft) S 180 0 min 10,4 C 13,4 C 0,0 km/h (0 Bft)
06.09.2021 00:10 12,6 C 18,2 C 13,6 C 13,2 C 13,2 C 0,6 C 86 % 93 % 1020,4 hPa 0,0 l/m 0,0 km/h (0 Bft) S 180 0 min 10,3 C 13,2 C 0,0 km/h (0 Bft)
06.09.2021 00:15 12,7 C 18,2 C 13,5 C 13,1 C 13,1 C 0,4 C 87 % 93 % 1020,3 hPa 0,0 l/m 0,0 km/h (0 Bft) S 180 0 min 10,6 C 13,1 C 0,0 km/h (0 Bft)
06.09.2021 00:20 12,5 C 18,2 C 13,5 C 13,1 C 13,1 C 0,6 C 87 % 93 % 1020,3 hPa 0,0 l/m 0,0 km/h (0 Bft) S 180 0 min 10,4 C 13,1 C 0,0 km/h (0 Bft)
06.09.2021 00:25 12,5 C 18,2 C 13,4 C 13,0 C 13,0 C 0,5 C 87 % 93 % 1020,3 hPa 0,0 l/m 0,0 km/h (0 Bft) S 180 0 min 10,4 C 13,0 C 0,0 km/h (0 Bft)
06.09.2021 00:30 12,4 C 18,1 C 13,4 C 13,0 C 13,0 C 0,6 C 87 % 93 % 1020,3 hPa 0,0 l/m 0,0 km/h (0 Bft) S 180 0 min 10,3 C 13,0 C 0,0 km/h (0 Bft)
06.09.2021 00:35 12,5 C 18,1 C 13,4 C 13,0 C 13,0 C 0,5 C 87 % 93 % 1020,3 hPa 0,0 l/m 0,0 km/h (0 Bft) S 180 0 min 10,4 C 13,0 C 0,0 km/h (0 Bft)
06.09.2021 00:40 12,4 C 18,1 C 13,3 C 13,0 C 13,0 C 0,6 C 87 % 93 % 1020,3 hPa 0,0 l/m 0,0 km/h (0 Bft) S 180 0 min 10,3 C 13,0 C 0,0 km/h (0 Bft)
06.09.2021 00:45 12,3 C 18,1 C 13,3 C 12,8 C 12,8 C 0,5 C 87 % 93 % 1020,3 hPa 0,0 l/m 0,0 km/h (0 Bft) S 180 0 min 10,2 C 12,8 C 0,0 km/h (0 Bft)
06.09.2021 00:50 12,2 C 18,1 C 13,1 C 12,8 C 12,8 C 0,6 C 87 % 93 % 1020,3 hPa 0,0 l/m 0,0 km/h (0 Bft) S 180 0 min 10,1 C 12,8 C 0,0 km/h (0 Bft)
06.09.2021 00:55 12,3 C 18,1 C 13,1 C 12,8 C 12,8 C 0,5 C 87 % 93 % 1020,4 hPa 0,0 l/m 0,0 km/h (0 Bft) S 180 0 min 10,2 C 12,8 C 0,0 km/h (0 Bft)
06.09.2021 01:00 12,1 C 18,1 C 13,1 C 12,6 C 12,6 C 0,5 C 87 % 93 % 1020,4 hPa 0,0 l/m 0,0 km/h (0 Bft) S 180 0 min 10,0 C 12,6 C 0,0 km/h (0 Bft)
06.09.2021 01:05 12,1 C 18,1 C 13,1 C 12,6 C 12,6 C 0,5 C 87 % 93 % 1020,4 hPa 0,0 l/m 0,0 km/h (0 Bft) S 180 0 min 10,0 C 12,6 C 0,0 km/h (0 Bft)
06.09.2021 01:10 12,1 C 18,1 C 13,1 C 12,7 C 12,7 C 0,6 C 87 % 93 % 1020,4 hPa 0,0 l/m 0,0 km/h (0 Bft) S 180 0 min 10,0 C 12,7 C 0,0 km/h (0 Bft)
06.09.2021 01:15 12,0 C 18,1 C 13,0 C 12,7 C 12,7 C 0,7 C 87 % 93 % 1020,4 hPa 0,0 l/m 0,0 km/h (0 Bft) S 180 0 min 9,9 C 12,7 C 0,0 km/h (0 Bft)
06.09.2021 01:20 11,9 C 18,1 C 13,0 C 12,6 C 12,6 C 0,7 C 87 % 93 % 1020,4 hPa 0,0 l/m 0,0 km/h (0 Bft) S 180 0 min 9,8 C 12,6 C 0,0 km/h (0 Bft)
06.09.2021 01:25 11,8 C 18,1 C 12,9 C 12,4 C 12,4 C 0,6 C 87 % 93 % 1020,4 hPa 0,0 l/m 0,0 km/h (0 Bft) S 180 0 min 9,7 C 12,4 C 0,0 km/h (0 Bft)
06.09.2021 01:30 11,8 C 18,1 C 12,8 C 12,2 C 12,2 C 0,4 C 87 % 93 % 1020,4 hPa 0,0 l/m 0,0 km/h (0 Bft) S 180 0 min 9,7 C 12,2 C 0,0 km/h (0 Bft)
06.09.2021 01:35 11,6 C 18,1 C 12,7 C 12,0 C 12,0 C 0,4 C 87 % 93 % 1020,2 hPa 0,0 l/m 0,0 km/h (0 Bft) S 180 0 min 9,5 C 12,0 C 0,0 km/h (0 Bft)
06.09.2021 01:40 11,6 C 18,1 C 12,7 C 12,1 C 12,1 C 0,5 C 87 % 93 % 1020,2 hPa 0,0 l/m 0,0 km/h (0 Bft) S 180 0 min 9,5 C 12,1 C 0,0 km/h (0 Bft)
06.09.2021 01:45 11,6 C 18,0 C 12,5 C 12,1 C 12,1 C 0,5 C 87 % 93 % 1020,2 hPa 0,0 l/m 0,0 km/h (0 Bft) S 180 0 min 9,5 C 12,1 C 0,0 km/h (0 Bft)
06.09.2021 01:50 11,5 C 18,0 C 12,5 C 12,0 C 12,0 C 0,5 C 87 % 93 % 1020,2 hPa 0,0 l/m 0,0 km/h (0 Bft) S 180 0 min 9,4 C 12,0 C 0,0 km/h (0 Bft)
06.09.2021 01:55 11,5 C 18,0 C 12,4 C 11,8 C 11,8 C 0,3 C 87 % 93 % 1020,2 hPa 0,0 l/m 0,0 km/h (0 Bft) S 180 0 min 9,4 C 11,8 C 0,0 km/h (0 Bft)
06.09.2021 02:00 11,3 C 18,0 C 12,3 C 11,7 C 11,7 C 0,4 C 86 % 93 % 1020,2 hPa 0,0 l/m 0,0 km/h (0 Bft) S 180 0 min 9,0 C 11,7 C 0,0 km/h (0 Bft)
06.09.2021 02:05 11,2 C 18,0 C 12,2 C 11,5 C 11,5 C 0,3 C 86 % 93 % 1020,2 hPa 0,0 l/m 0,0 km/h (0 Bft) S 180 0 min 8,9 C 11,5 C 0,0 km/h (0 Bft)
06.09.2021 02:10 11,2 C 18,1 C 12,1 C 11,5 C 11,5 C 0,3 C 86 % 93 % 1020,2 hPa 0,0 l/m 0,0 km/h (0 Bft) S 180 0 min 8,9 C 11,5 C 0,0 km/h (0 Bft)
06.09.2021 02:15 11,1 C 18,1 C 12,1 C 11,4 C 11,4 C 0,3 C 87 % 93 % 1020,3 hPa 0,0 l/m 0,0 km/h (0 Bft) S 180 0 min 9,0 C 11,4 C 0,0 km/h (0 Bft)
06.09.2021 02:20 11,0 C 18,1 C 12,1 C 11,4 C 11,4 C 0,4 C 87 % 93 % 1020,3 hPa 0,0 l/m 0,0 km/h (0 Bft) S 180 0 min 8,9 C 11,4 C 0,0 km/h (0 Bft)
06.09.2021 02:25 10,9 C 18,1 C 12,0 C 11,3 C 11,3 C 0,4 C 87 % 93 % 1020,3 hPa 0,0 l/m 0,0 km/h (0 Bft) S 180 0 min 8,8 C 11,3 C 0,0 km/h (0 Bft)
06.09.2021 02:30 10,8 C 18,1 C 11,9 C 11,4 C 11,4 C 0,6 C 87 % 93 % 1020,3 hPa 0,0 l/m 0,0 km/h (0 Bft) S 180 0 min 8,7 C 11,4 C 0,0 km/h (0 Bft)
06.09.2021 02:35 10,8 C 18,0 C 11,9 C 11,3 C 11,3 C 0,5 C 87 % 93 % 1020,0 hPa 0,0 l/m 0,0 km/h (0 Bft) S 180 0 min 8,7 C 11,3 C 0,0 km/h (0 Bft)
06.09.2021 02:40 10,7 C 18,0 C 11,8 C 11,2 C 11,2 C 0,5 C 87 % 93 % 1020,0 hPa 0,0 l/m 0,0 km/h (0 Bft) S 180 0 min 8,6 C 11,2 C 0,0 km/h (0 Bft)
06.09.2021 02:45 10,7 C 18,0 C 11,7 C 11,0 C 11,0 C 0,3 C 87 % 93 % 1020,0 hPa 0,0 l/m 0,0 km/h (0 Bft) S 180 0 min 8,6 C 11,0 C 0,0 km/h (0 Bft)
06.09.2021 02:50 10,5 C 18,0 C 11,7 C 11,0 C 11,0 C 0,5 C 87 % 93 % 1020,0 hPa 0,0 l/m 0,0 km/h (0 Bft) S 180 0 min 8,4 C 11,0 C 0,0 km/h (0 Bft)
06.09.2021 02:55 10,4 C 18,0 C 11,6 C 10,8 C 10,8 C 0,4 C 87 % 93 % 1020,0 hPa 0,0 l/m 0,0 km/h (0 Bft) S 180 0 min 8,3 C 10,8 C 0,0 km/h (0 Bft)
06.09.2021 03:00 10,4 C 18,0 C 11,5 C 10,8 C 10,8 C 0,4 C 87 % 93 % 1020,0 hPa 0,0 l/m 0,0 km/h (0 Bft) S 180 0 min 8,3 C 10,8 C 0,0 km/h (0 Bft)
06.09.2021 03:05 10,3 C 18,0 C 11,6 C 10,9 C 10,9 C 0,6 C 87 % 93 % 1020,0 hPa 0,0 l/m 0,0 km/h (0 Bft) S 180 0 min 8,2 C 10,9 C 0,0 km/h (0 Bft)
06.09.2021 03:10 10,2 C 18,0 C 11,5 C 11,0 C 11,0 C 0,8 C 87 % 93 % 1020,0 hPa 0,0 l/m 0,0 km/h (0 Bft) S 180 0 min 8,1 C 11,0 C 0,0 km/h (0 Bft)
06.09.2021 03:15 10,2 C 18,0 C 11,5 C 11,0 C 11,0 C 0,8 C 87 % 94 % 1020,1 hPa 0,0 l/m 0,0 km/h (0 Bft) S 180 0 min 8,1 C 11,0 C 0,0 km/h (0 Bft)
06.09.2021 03:20 10,1 C 18,0 C 11,5 C 10,8 C 10,8 C 0,7 C 87 % 93 % 1020,1 hPa 0,0 l/m 0,0 km/h (0 Bft) S 180 0 min 8,0 C 10,8 C 0,0 km/h (0 Bft)
06.09.2021 03:25 10,0 C 18,0 C 11,5 C 10,8 C 10,8 C 0,8 C 87 % 94 % 1020,1 hPa 0,0 l/m 0,0 km/h (0 Bft) S 180 0 min 7,9 C 10,8 C 0,0 km/h (0 Bft)
06.09.2021 03:30 10,0 C 17,9 C 11,4 C 10,8 C 10,8 C 0,8 C 87 % 94 % 1020,1 hPa 0,0 l/m 0,0 km/h (0 Bft) S 180 0 min 7,9 C 10,8 C 0,0 km/h (0 Bft)
06.09.2021 03:35 10,0 C 17,9 C 11,4 C 10,9 C 10,9 C 0,9 C 87 % 94 % 1020,2 hPa 0,0 l/m 0,0 km/h (0 Bft) S 180 0 min 7,9 C 10,9 C 0,0 km/h (0 Bft)
06.09.2021 03:40 10,0 C 17,9 C 11,5 C 11,0 C 11,0 C 1,0 C 87 % 94 % 1020,2 hPa 0,0 l/m 0,0 km/h (0 Bft) S 180 0 min 7,9 C 11,0 C 0,0 km/h (0 Bft)
06.09.2021 03:45 9,9 C 17,9 C 11,5 C 11,0 C 11,0 C 1,1 C 87 % 94 % 1020,2 hPa 0,0 l/m 0,0 km/h (0 Bft) S 180 0 min 7,8 C 11,0 C 0,0 km/h (0 Bft)
06.09.2021 03:50 9,9 C 17,9 C 11,6 C 11,0 C 11,0 C 1,1 C 87 % 94 % 1020,2 hPa 0,0 l/m 0,0 km/h (0 Bft) S 180 0 min 7,8 C 11,0 C 0,0 km/h (0 Bft)
06.09.2021 03:55 9,9 C 17,9 C 11,5 C 11,0 C 11,0 C 1,1 C 87 % 94 % 1020,4 hPa 0,0 l/m 0,0 km/h (0 Bft) S 180 0 min 7,8 C 11,0 C 0,0 km/h (0 Bft)
06.09.2021 04:00 9,9 C 17,9 C 11,5 C 11,0 C 11,0 C 1,1 C 87 % 94 % 1020,4 hPa 0,0 l/m 0,0 km/h (0 Bft) S 180 0 min 7,8 C 11,0 C 0,0 km/h (0 Bft)
06.09.2021 04:05 9,9 C 17,9 C 11,5 C 11,0 C 11,0 C 1,1 C 87 % 94 % 1020,4 hPa 0,0 l/m 0,0 km/h (0 Bft) S 180 0 min 7,8 C 11,0 C 0,0 km/h (0 Bft)
06.09.2021 04:10 9,9 C 17,9 C 11,5 C 11,0 C 11,0 C 1,1 C 87 % 94 % 1020,4 hPa 0,0 l/m 0,0 km/h (0 Bft) S 180 0 min 7,8 C 11,0 C 0,0 km/h (0 Bft)
06.09.2021 04:15 9,9 C 17,9 C 11,5 C 11,1 C 11,1 C 1,2 C 87 % 94 % 1020,4 hPa 0,0 l/m 0,0 km/h (0 Bft) S 180 0 min 7,8 C 11,1 C 0,0 km/h (0 Bft)
06.09.2021 04:20 9,9 C 17,8 C 11,6 C 11,1 C 11,1 C 1,2 C 87 % 94 % 1020,4 hPa 0,0 l/m 0,0 km/h (0 Bft) S 180 0 min 7,8 C 11,1 C 0,0 km/h (0 Bft)
06.09.2021 04:25 9,8 C 17,8 C 11,5 C 11,1 C 11,1 C 1,3 C 87 % 94 % 1020,4 hPa 0,0 l/m 0,0 km/h (0 Bft) S 180 0 min 7,7 C 11,1 C 0,0 km/h (0 Bft)
06.09.2021 04:30 9,9 C 17,8 C 11,5 C 11,1 C 11,1 C 1,2 C 87 % 94 % 1020,4 hPa 0,0 l/m 0,0 km/h (0 Bft) S 180 0 min 7,8 C 11,1 C 0,0 km/h (0 Bft)
06.09.2021 04:35 9,9 C 17,8 C 11,4 C 11,2 C 11,2 C 1,3 C 87 % 94 % 1020,5 hPa 0,0 l/m 0,0 km/h (0 Bft) S 180 0 min 7,8 C 11,2 C 0,0 km/h (0 Bft)
06.09.2021 04:40 9,9 C 17,8 C 11,5 C 11,2 C 11,2 C 1,3 C 87 % 94 % 1020,5 hPa 0,0 l/m 0,0 km/h (0 Bft) S 180 0 min 7,8 C 11,2 C 0,0 km/h (0 Bft)
06.09.2021 04:45 9,9 C 17,8 C 11,4 C 11,2 C 11,2 C 1,3 C 87 % 94 % 1020,5 hPa 0,0 l/m 0,0 km/h (0 Bft) S 180 0 min 7,8 C 11,2 C 0,0 km/h (0 Bft)
06.09.2021 04:50 9,9 C 17,8 C 11,5 C 11,3 C 11,3 C 1,4 C 87 % 94 % 1020,5 hPa 0,0 l/m 0,0 km/h (0 Bft) S 180 0 min 7,8 C 11,3 C 0,0 km/h (0 Bft)
06.09.2021 04:55 9,9 C 17,8 C 11,5 C 11,2 C 11,2 C 1,3 C 87 % 94 % 1021,0 hPa 0,0 l/m 0,0 km/h (0 Bft) S 180 0 min 7,8 C 11,2 C 0,0 km/h (0 Bft)
06.09.2021 05:00 9,9 C 17,8 C 11,5 C 11,3 C 11,3 C 1,4 C 87 % 94 % 1021,0 hPa 0,0 l/m 0,0 km/h (0 Bft) S 180 0 min 7,8 C 11,3 C 0,0 km/h (0 Bft)
06.09.2021 05:05 9,9 C 17,8 C 11,5 C 11,3 C 11,3 C 1,4 C 87 % 94 % 1021,0 hPa 0,0 l/m 0,0 km/h (0 Bft) S 180 0 min 7,8 C 11,3 C 0,0 km/h (0 Bft)
06.09.2021 05:10 9,9 C 17,7 C 11,5 C 11,3 C 11,3 C 1,4 C 87 % 94 % 1021,0 hPa 0,0 l/m 0,0 km/h (0 Bft) S 180 0 min 7,8 C 11,3 C 0,0 km/h (0 Bft)
06.09.2021 05:15 9,8 C 17,7 C 11,5 C 11,3 C 11,3 C 1,5 C 87 % 94 % 1020,6 hPa 0,0 l/m 0,0 km/h (0 Bft) S 180 0 min 7,7 C 11,3 C 0,0 km/h (0 Bft)
06.09.2021 05:20 9,9 C 17,7 C 11,5 C 11,3 C 11,3 C 1,4 C 87 % 94 % 1020,6 hPa 0,0 l/m 0,0 km/h (0 Bft) S 180 0 min 7,8 C 11,3 C 0,0 km/h (0 Bft)
06.09.2021 05:25 9,8 C 17,7 C 11,6 C 11,3 C 11,3 C 1,5 C 87 % 94 % 1020,6 hPa 0,0 l/m 0,0 km/h (0 Bft) S 180 0 min 7,7 C 11,3 C 0,0 km/h (0 Bft)
06.09.2021 05:30 9,9 C 17,7 C 11,5 C 11,3 C 11,3 C 1,4 C 87 % 94 % 1020,6 hPa 0,0 l/m 0,0 km/h (0 Bft) S 180 0 min 7,8 C 11,3 C 0,0 km/h (0 Bft)
06.09.2021 05:35 9,8 C 17,7 C 11,6 C 11,4 C 11,4 C 1,6 C 87 % 94 % 1021,5 hPa 0,0 l/m 0,0 km/h (0 Bft) S 180 0 min 7,7 C 11,4 C 0,0 km/h (0 Bft)
06.09.2021 05:40 9,9 C 17,7 C 11,6 C 11,4 C 11,4 C 1,5 C 87 % 94 % 1021,5 hPa 0,0 l/m 0,0 km/h (0 Bft) S 180 0 min 7,8 C 11,4 C 0,0 km/h (0 Bft)
06.09.2021 05:45 9,9 C 17,7 C 11,6 C 11,4 C 11,4 C 1,5 C 87 % 94 % 1021,5 hPa 0,0 l/m 0,0 km/h (0 Bft) S 180 0 min 7,8 C 11,4 C 0,0 km/h (0 Bft)
06.09.2021 05:50 9,9 C 17,7 C 11,6 C 11,4 C 11,4 C 1,5 C 87 % 94 % 1021,5 hPa 0,0 l/m 0,0 km/h (0 Bft) S 180 0 min 7,8 C 11,4 C 0,0 km/h (0 Bft)
06.09.2021 05:55 9,9 C 17,7 C 11,5 C 11,4 C 11,4 C 1,5 C 87 % 94 % 1020,4 hPa 0,0 l/m 0,0 km/h (0 Bft) S 180 0 min 7,8 C 11,4 C 0,0 km/h (0 Bft)
06.09.2021 06:00 9,9 C 17,7 C 11,6 C 11,4 C 11,4 C 1,5 C 87 % 94 % 1020,4 hPa 0,0 l/m 0,0 km/h (0 Bft) S 180 0 min 7,8 C 11,4 C 0,0 km/h (0 Bft)
06.09.2021 06:05 9,9 C 17,6 C 11,5 C 11,4 C 11,4 C 1,5 C 87 % 94 % 1020,4 hPa 0,0 l/m 0,0 km/h (0 Bft) S 180 0 min 7,8 C 11,4 C 0,0 km/h (0 Bft)
06.09.2021 06:10 9,9 C 17,6 C 11,5 C 11,4 C 11,4 C 1,5 C 87 % 94 % 1020,4 hPa 0,0 l/m 0,0 km/h (0 Bft) S 180 0 min 7,8 C 11,4 C 0,0 km/h (0 Bft)
06.09.2021 06:15 9,9 C 17,6 C 11,5 C 11,4 C 11,4 C 1,5 C 87 % 94 % 1020,6 hPa 0,0 l/m 0,0 km/h (0 Bft) S 180 0 min 7,8 C 11,4 C 0,0 km/h (0 Bft)
06.09.2021 06:20 9,9 C 17,6 C 11,6 C 11,4 C 11,4 C 1,5 C 87 % 94 % 1020,6 hPa 0,0 l/m 0,0 km/h (0 Bft) S 180 0 min 7,8 C 11,4 C 0,0 km/h (0 Bft)
06.09.2021 06:25 9,9 C 17,6 C 11,5 C 11,4 C 11,4 C 1,5 C 87 % 94 % 1020,6 hPa 0,0 l/m 0,0 km/h (0 Bft) S 180 0 min 7,8 C 11,4 C 0,0 km/h (0 Bft)
06.09.2021 06:30 9,9 C 17,6 C 11,6 C 11,4 C 11,4 C 1,5 C 87 % 94 % 1020,6 hPa 0,0 l/m 0,0 km/h (0 Bft) S 180 0 min 7,8 C 11,4 C 0,0 km/h (0 Bft)
06.09.2021 06:35 9,9 C 17,6 C 11,5 C 11,3 C 11,3 C 1,4 C 87 % 94 % 1020,7 hPa 0,0 l/m 0,0 km/h (0 Bft) S 180 0 min 7,8 C 11,3 C 0,0 km/h (0 Bft)
06.09.2021 06:40 9,9 C 17,6 C 11,5 C 11,3 C 11,3 C 1,4 C 87 % 94 % 1020,7 hPa 0,0 l/m 0,0 km/h (0 Bft) S 180 0 min 7,8 C 11,3 C 0,0 km/h (0 Bft)
06.09.2021 06:45 9,9 C 17,6 C 11,5 C 11,3 C 11,3 C 1,4 C 87 % 94 % 1020,7 hPa 0,0 l/m 0,0 km/h (0 Bft) S 180 5 min 7,8 C 11,3 C 0,0 km/h (0 Bft)
06.09.2021 06:50 9,8 C 17,6 C 11,5 C 11,3 C 11,3 C 1,5 C 87 % 94 % 1020,7 hPa 0,0 l/m 0,0 km/h (0 Bft) S 180 5 min 7,7 C 11,3 C 0,0 km/h (0 Bft)
06.09.2021 06:55 9,8 C 17,6 C 11,5 C 11,3 C 11,3 C 1,5 C 87 % 94 % 1020,8 hPa 0,0 l/m 0,0 km/h (0 Bft) S 180 5 min 7,7 C 11,3 C 0,0 km/h (0 Bft)
06.09.2021 07:00 9,9 C 17,6 C 11,5 C 11,4 C 11,4 C 1,5 C 87 % 94 % 1020,8 hPa 0,0 l/m 0,0 km/h (0 Bft) S 180 5 min 7,8 C 11,4 C 0,0 km/h (0 Bft)
06.09.2021 07:05 9,9 C 17,6 C 11,5 C 11,4 C 11,4 C 1,5 C 87 % 94 % 1020,8 hPa 0,0 l/m 0,0 km/h (0 Bft) S 180 5 min 7,8 C 11,4 C 0,0 km/h (0 Bft)
06.09.2021 07:10 9,9 C 17,6 C 11,5 C 11,4 C 11,4 C 1,5 C 87 % 94 % 1020,8 hPa 0,0 l/m 0,0 km/h (0 Bft) S 180 5 min 7,8 C 11,4 C 0,0 km/h (0 Bft)
06.09.2021 07:15 9,9 C 17,5 C 11,7 C 11,5 C 11,5 C 1,6 C 87 % 94 % 1020,8 hPa 0,0 l/m 0,0 km/h (0 Bft) S-SW 202 5 min 7,8 C 11,5 C 0,0 km/h (0 Bft)
06.09.2021 07:20 9,9 C 17,5 C 11,7 C 11,6 C 11,6 C 1,7 C 87 % 94 % 1020,8 hPa 0,0 l/m 0,0 km/h (0 Bft) S 180 5 min 7,8 C 11,6 C 0,0 km/h (0 Bft)
06.09.2021 07:25 10,0 C 17,5 C 11,7 C 11,7 C 11,7 C 1,7 C 87 % 94 % 1020,8 hPa 0,0 l/m 0,0 km/h (0 Bft) S 180 5 min 7,9 C 11,7 C 0,0 km/h (0 Bft)
06.09.2021 07:30 10,0 C 17,5 C 11,7 C 11,7 C 11,7 C 1,7 C 87 % 94 % 1020,8 hPa 0,0 l/m 0,0 km/h (0 Bft) S 180 5 min 7,9 C 11,7 C 0,0 km/h (0 Bft)
06.09.2021 07:35 10,0 C 17,5 C 11,7 C 11,8 C 11,8 C 1,8 C 87 % 94 % 1021,1 hPa 0,0 l/m 0,0 km/h (0 Bft) S-SW 202 5 min 7,9 C 11,8 C 0,0 km/h (0 Bft)
06.09.2021 07:40 10,1 C 17,5 C 11,7 C 11,8 C 11,8 C 1,7 C 87 % 94 % 1021,1 hPa 0,0 l/m 0,0 km/h (0 Bft) S-SW 202 0 min 8,0 C 11,8 C 0,0 km/h (0 Bft)
06.09.2021 07:45 10,1 C 17,5 C 11,8 C 11,9 C 11,9 C 1,8 C 87 % 94 % 1021,1 hPa 0,0 l/m 0,0 km/h (0 Bft) S 180 0 min 8,0 C 11,9 C 0,0 km/h (0 Bft)
06.09.2021 07:50 10,3 C 17,5 C 11,8 C 12,0 C 12,0 C 1,7 C 87 % 94 % 1021,1 hPa 0,0 l/m 0,0 km/h (0 Bft) S 180 0 min 8,2 C 12,0 C 0,0 km/h (0 Bft)
06.09.2021 07:55 10,3 C 17,5 C 11,9 C 12,1 C 12,1 C 1,8 C 87 % 94 % 1021,1 hPa 0,0 l/m 0,0 km/h (0 Bft) S 180 0 min 8,2 C 12,1 C 0,0 km/h (0 Bft)
06.09.2021 08:00 10,3 C 17,5 C 11,8 C 12,0 C 12,0 C 1,7 C 87 % 94 % 1021,1 hPa 0,0 l/m 0,0 km/h (0 Bft) SW 225 0 min 8,2 C 12,0 C 0,0 km/h (0 Bft)
06.09.2021 08:05 10,3 C 17,5 C 11,9 C 12,2 C 12,2 C 1,9 C 87 % 94 % 1021,1 hPa 0,0 l/m 0,0 km/h (0 Bft) SW 225 0 min 8,2 C 12,2 C 0,0 km/h (0 Bft)
06.09.2021 08:10 10,4 C 17,5 C 12,0 C 12,4 C 12,4 C 2,0 C 87 % 94 % 1021,1 hPa 0,0 l/m 0,0 km/h (0 Bft) S 180 0 min 8,3 C 12,4 C 0,0 km/h (0 Bft)
06.09.2021 08:15 10,5 C 17,5 C 12,1 C 12,5 C 12,5 C 2,0 C 87 % 94 % 1021,2 hPa 0,0 l/m 0,0 km/h (0 Bft) SW 225 0 min 8,4 C 12,5 C 0,0 km/h (0 Bft)
06.09.2021 08:20 10,7 C 17,5 C 12,2 C 12,7 C 12,7 C 2,0 C 87 % 94 % 1021,2 hPa 0,0 l/m 0,0 km/h (0 Bft) SW 225 0 min 8,6 C 12,7 C 0,0 km/h (0 Bft)
06.09.2021 08:25 10,7 C 17,5 C 12,3 C 12,9 C 12,9 C 2,2 C 87 % 94 % 1021,2 hPa 0,0 l/m 0,0 km/h (0 Bft) SW 225 0 min 8,6 C 12,9 C 0,0 km/h (0 Bft)
06.09.2021 08:30 10,8 C 17,5 C 12,3 C 13,0 C 13,0 C 2,2 C 87 % 94 % 1021,2 hPa 0,0 l/m 0,0 km/h (0 Bft) S 180 0 min 8,7 C 13,0 C 0,0 km/h (0 Bft)
06.09.2021 08:35 10,9 C 17,5 C 12,5 C 13,2 C 13,2 C 2,3 C 88 % 94 % 1021,4 hPa 0,0 l/m 0,0 km/h (0 Bft) S-SO 157 0 min 9,0 C 13,2 C 0,0 km/h (0 Bft)
06.09.2021 08:40 11,1 C 17,5 C 12,6 C 13,5 C 13,5 C 2,4 C 87 % 94 % 1021,4 hPa 0,0 l/m 0,0 km/h (0 Bft) SW 225 0 min 9,0 C 13,5 C 0,0 km/h (0 Bft)
06.09.2021 08:45 11,2 C 17,5 C 12,7 C 13,8 C 13,8 C 2,6 C 87 % 94 % 1021,4 hPa 0,0 l/m 0,0 km/h (0 Bft) SW 225 0 min 9,1 C 13,8 C 0,0 km/h (0 Bft)
06.09.2021 08:50 11,2 C 17,5 C 12,7 C 13,9 C 13,9 C 2,7 C 87 % 94 % 1021,4 hPa 0,0 l/m 0,0 km/h (0 Bft) SW 225 0 min 9,1 C 13,9 C 0,0 km/h (0 Bft)
06.09.2021 08:55 11,5 C 17,5 C 12,9 C 14,1 C 14,1 C 2,6 C 87 % 94 % 1021,3 hPa 0,0 l/m 0,0 km/h (0 Bft) SW 225 0 min 9,4 C 14,1 C 0,0 km/h (0 Bft)
06.09.2021 09:00 11,5 C 17,5 C 13,0 C 14,3 C 14,3 C 2,8 C 87 % 94 % 1021,3 hPa 0,0 l/m 0,0 km/h (0 Bft) SW 225 0 min 9,4 C 14,3 C 0,0 km/h (0 Bft)
06.09.2021 09:05 11,7 C 17,5 C 13,2 C 14,4 C 14,4 C 2,7 C 87 % 94 % 1021,3 hPa 0,0 l/m 0,0 km/h (0 Bft) SW 225 0 min 9,6 C 14,4 C 0,0 km/h (0 Bft)
06.09.2021 09:10 11,9 C 17,5 C 13,2 C 14,6 C 14,6 C 2,7 C 87 % 94 % 1021,3 hPa 0,0 l/m 0,0 km/h (0 Bft) SW 225 0 min 9,8 C 14,6 C 0,0 km/h (0 Bft)
06.09.2021 09:15 11,9 C 17,5 C 13,3 C 14,8 C 14,8 C 2,9 C 87 % 94 % 1021,4 hPa 0,0 l/m 0,0 km/h (0 Bft) S 180 0 min 9,8 C 14,8 C 0,0 km/h (0 Bft)
06.09.2021 09:20 12,0 C 17,5 C 13,4 C 14,9 C 14,9 C 2,9 C 87 % 94 % 1021,4 hPa 0,0 l/m 0,0 km/h (0 Bft) SW 225 0 min 9,9 C 14,9 C 0,0 km/h (0 Bft)
06.09.2021 09:25 12,3 C 17,5 C 13,5 C 15,2 C 15,2 C 2,9 C 87 % 94 % 1021,4 hPa 0,0 l/m 0,0 km/h (0 Bft) SW 225 0 min 10,2 C 15,2 C 0,0 km/h (0 Bft)
06.09.2021 09:30 12,3 C 17,5 C 13,6 C 15,4 C 15,4 C 3,1 C 87 % 94 % 1021,4 hPa 0,0 l/m 0,0 km/h (0 Bft) SW 225 0 min 10,2 C 15,4 C 0,0 km/h (0 Bft)
06.09.2021 09:35 12,5 C 17,4 C 13,7 C 15,8 C 15,8 C 3,3 C 88 % 94 % 1021,9 hPa 0,0 l/m 0,0 km/h (0 Bft) SW 225 5 min 10,6 C 15,8 C 0,0 km/h (0 Bft)
06.09.2021 09:40 12,6 C 17,4 C 13,8 C 16,0 C 16,0 C 3,4 C 88 % 94 % 1021,9 hPa 0,0 l/m 0,0 km/h (0 Bft) SW 225 5 min 10,7 C 16,0 C 0,0 km/h (0 Bft)
06.09.2021 09:45 12,9 C 17,4 C 13,9 C 16,3 C 16,3 C 3,4 C 88 % 94 % 1021,9 hPa 0,0 l/m 0,0 km/h (0 Bft) SW 225 5 min 11,0 C 16,3 C 0,0 km/h (0 Bft)
06.09.2021 09:50 12,9 C 17,4 C 14,1 C 16,4 C 16,4 C 3,5 C 88 % 94 % 1021,9 hPa 0,0 l/m 0,0 km/h (0 Bft) SW 225 5 min 11,0 C 16,4 C 0,0 km/h (0 Bft)
06.09.2021 09:55 13,0 C 17,4 C 14,2 C 16,7 C 16,7 C 3,7 C 88 % 94 % 1022,0 hPa 0,0 l/m 0,0 km/h (0 Bft) SW 225 5 min 11,1 C 16,7 C 0,0 km/h (0 Bft)
06.09.2021 10:00 13,2 C 17,4 C 14,2 C 16,8 C 16,8 C 3,6 C 88 % 94 % 1022,0 hPa 0,0 l/m 0,0 km/h (0 Bft) SW 225 5 min 11,3 C 16,8 C 0,0 km/h (0 Bft)
06.09.2021 10:05 13,3 C 17,4 C 14,4 C 17,1 C 17,1 C 3,8 C 88 % 94 % 1022,0 hPa 0,0 l/m 0,0 km/h (0 Bft) SW 225 5 min 11,4 C 17,1 C 0,0 km/h (0 Bft)
06.09.2021 10:10 13,3 C 17,4 C 14,5 C 17,1 C 17,1 C 3,8 C 88 % 94 % 1022,0 hPa 0,0 l/m 0,0 km/h (0 Bft) SW 225 5 min 11,4 C 17,1 C 0,0 km/h (0 Bft)
06.09.2021 10:15 13,6 C 17,5 C 14,7 C 17,5 C 17,5 C 3,9 C 88 % 94 % 1021,9 hPa 0,0 l/m 0,0 km/h (0 Bft) SW 225 5 min 11,6 C 17,5 C 0,0 km/h (0 Bft)
06.09.2021 10:20 13,7 C 17,5 C 14,8 C 17,8 C 17,8 C 4,1 C 88 % 94 % 1021,9 hPa 0,0 l/m 0,0 km/h (0 Bft) SW 225 5 min 11,7 C 17,8 C 0,0 km/h (0 Bft)
06.09.2021 10:25 14,0 C 17,5 C 14,9 C 18,2 C 18,2 C 4,2 C 88 % 94 % 1021,9 hPa 0,0 l/m 0,0 km/h (0 Bft) S 180 5 min 12,0 C 18,2 C 0,0 km/h (0 Bft)
06.09.2021 10:30 14,1 C 17,5 C 14,9 C 18,3 C 18,3 C 4,2 C 88 % 94 % 1021,9 hPa 0,0 l/m 0,0 km/h (0 Bft) SW 225 5 min 12,1 C 18,3 C 0,0 km/h (0 Bft)
06.09.2021 10:35 14,2 C 17,5 C 15,0 C 18,3 C 18,3 C 4,1 C 88 % 94 % 1021,9 hPa 0,0 l/m 0,0 km/h (0 Bft) SW 225 5 min 12,2 C 18,3 C 0,0 km/h (0 Bft)
06.09.2021 10:40 14,5 C 17,5 C 15,1 C 18,3 C 18,3 C 3,8 C 88 % 94 % 1021,9 hPa 0,0 l/m 0,0 km/h (0 Bft) SW 225 5 min 12,5 C 18,3 C 0,0 km/h (0 Bft)
06.09.2021 10:45 14,5 C 17,5 C 15,4 C 18,5 C 18,5 C 4,0 C 88 % 94 % 1021,9 hPa 0,0 l/m 0,0 km/h (0 Bft) W-SW 247 5 min 12,5 C 18,5 C 0,0 km/h (0 Bft)
06.09.2021 10:50 14,6 C 17,5 C 15,7 C 18,6 C 18,6 C 4,0 C 88 % 94 % 1021,9 hPa 0,0 l/m 0,0 km/h (0 Bft) W-SW 247 5 min 12,6 C 18,6 C 0,0 km/h (0 Bft)
06.09.2021 10:55 14,6 C 17,5 C 16,2 C 18,5 C 18,5 C 3,9 C 87 % 94 % 1022,0 hPa 0,0 l/m 0,0 km/h (0 Bft) S-SO 157 5 min 12,5 C 18,5 C 0,0 km/h (0 Bft)
06.09.2021 11:00 14,8 C 17,5 C 16,3 C 18,4 C 18,4 C 3,6 C 87 % 93 % 1022,0 hPa 0,0 l/m 0,0 km/h (0 Bft) W-SW 247 5 min 12,7 C 18,4 C 0,0 km/h (0 Bft)
06.09.2021 11:05 14,9 C 17,4 C 16,3 C 18,4 C 18,4 C 3,5 C 87 % 93 % 1022,0 hPa 0,0 l/m 0,2 km/h (0 Bft) S-SW 202 5 min 12,8 C 18,4 C 1,6 km/h (1 Bft)
06.09.2021 11:10 15,1 C 17,4 C 16,3 C 18,4 C 18,4 C 3,3 C 87 % 93 % 1022,0 hPa 0,0 l/m 0,0 km/h (0 Bft) S-SW 202 5 min 13,0 C 18,4 C 0,0 km/h (0 Bft)
06.09.2021 11:15 15,1 C 17,4 C 16,5 C 18,5 C 18,5 C 3,4 C 87 % 93 % 1022,4 hPa 0,0 l/m 0,3 km/h (0 Bft) W-SW 247 5 min 13,0 C 18,5 C 3,4 km/h (1 Bft)
06.09.2021 11:20 15,3 C 17,4 C 16,7 C 18,6 C 18,6 C 3,3 C 87 % 93 % 1022,4 hPa 0,0 l/m 0,3 km/h (0 Bft) NW 315 5 min 13,1 C 18,6 C 0,0 km/h (0 Bft)
06.09.2021 11:25 15,5 C 17,4 C 17,5 C 18,7 C 18,7 C 3,2 C 87 % 93 % 1022,4 hPa 0,0 l/m 0,2 km/h (0 Bft) W-SW 247 0 min 13,3 C 18,7 C 0,0 km/h (0 Bft)
06.09.2021 11:30 15,5 C 17,4 C 19,1 C 18,9 C 18,9 C 3,4 C 87 % 93 % 1022,4 hPa 0,0 l/m 0,2 km/h (0 Bft) SW 225 5 min 13,3 C 18,9 C 0,0 km/h (0 Bft)
06.09.2021 11:35 15,7 C 17,4 C 21,2 C 19,1 C 19,1 C 3,4 C 87 % 89 % 1022,2 hPa 0,0 l/m 0,0 km/h (0 Bft) O 90 5 min 13,5 C 19,1 C 0,0 km/h (0 Bft)
06.09.2021 11:40 15,8 C 17,4 C 22,2 C 19,4 C 19,4 C 3,6 C 87 % 86 % 1022,2 hPa 0,0 l/m 0,0 km/h (0 Bft) N-NW 337 5 min 13,6 C 19,4 C 0,0 km/h (0 Bft)
06.09.2021 11:45 16,0 C 17,4 C 22,5 C 19,6 C 19,6 C 3,6 C 87 % 82 % 1022,2 hPa 0,0 l/m 0,2 km/h (0 Bft) W-SW 247 5 min 13,8 C 19,6 C 0,0 km/h (0 Bft)
06.09.2021 11:50 16,1 C 17,3 C 21,9 C 19,7 C 19,7 C 3,6 C 87 % 83 % 1022,2 hPa 0,0 l/m 0,3 km/h (0 Bft) S 180 5 min 13,9 C 19,7 C 2,4 km/h (1 Bft)
06.09.2021 11:55 16,3 C 17,3 C 21,5 C 20,0 C 20,0 C 3,7 C 87 % 83 % 1022,1 hPa 0,0 l/m 0,2 km/h (0 Bft) W 270 5 min 14,1 C 20,0 C 0,0 km/h (0 Bft)
06.09.2021 12:00 16,4 C 17,3 C 21,5 C 20,2 C 20,2 C 3,8 C 86 % 82 % 1022,1 hPa 0,0 l/m 0,2 km/h (0 Bft) SW 225 5 min 14,1 C 20,2 C 2,1 km/h (1 Bft)
06.09.2021 12:05 16,5 C 17,3 C 21,9 C 20,4 C 20,4 C 3,9 C 86 % 80 % 1022,1 hPa 0,0 l/m 0,2 km/h (0 Bft) O-NO 67 5 min 14,1 C 20,4 C 1,8 km/h (1 Bft)
06.09.2021 12:10 16,7 C 17,3 C 22,4 C 20,4 C 20,4 C 3,7 C 86 % 79 % 1022,1 hPa 0,0 l/m 0,2 km/h (0 Bft) N-NW 337 5 min 14,3 C 20,4 C 0,0 km/h (0 Bft)
06.09.2021 12:15 16,8 C 17,3 C 24,3 C 20,7 C 20,7 C 3,9 C 86 % 76 % 1021,9 hPa 0,0 l/m 0,2 km/h (0 Bft) SW 225 5 min 14,4 C 20,7 C 0,0 km/h (0 Bft)
06.09.2021 12:20 17,0 C 17,2 C 24,8 C 20,9 C 20,9 C 3,9 C 86 % 72 % 1021,9 hPa 0,0 l/m 0,0 km/h (0 Bft) NW 315 5 min 14,6 C 20,9 C 0,0 km/h (0 Bft)
06.09.2021 12:25 17,8 C 17,3 C 23,6 C 22,3 C 22,3 C 4,5 C 86 % 69 % 1021,9 hPa 0,0 l/m 0,3 km/h (0 Bft) N 360 5 min 15,4 C 22,3 C 2,1 km/h (1 Bft)
06.09.2021 12:30 18,3 C 17,2 C 23,1 C 24,4 C 24,4 C 6,1 C 86 % 71 % 1021,9 hPa 0,0 l/m 0,3 km/h (0 Bft) W 270 5 min 15,9 C 24,4 C 0,0 km/h (0 Bft)
06.09.2021 12:35 19,0 C 17,2 C 22,0 C 26,6 C 26,6 C 7,6 C 86 % 71 % 1021,8 hPa 0,0 l/m 0,2 km/h (0 Bft) NW 315 5 min 16,6 C 26,6 C 0,0 km/h (0 Bft)
06.09.2021 12:40 19,6 C 17,2 C 21,6 C 27,5 C 27,5 C 7,9 C 85 % 72 % 1021,8 hPa 0,0 l/m 0,0 km/h (0 Bft) SO 135 5 min 17,0 C 27,5 C 0,0 km/h (0 Bft)
06.09.2021 12:45 20,2 C 17,2 C 21,4 C 28,5 C 28,5 C 8,3 C 84 % 75 % 1021,8 hPa 0,0 l/m 0,0 km/h (0 Bft) W-NW 292 5 min 17,4 C 28,5 C 2,9 km/h (1 Bft)
06.09.2021 12:50 20,7 C 17,1 C 21,4 C 29,0 C 29,0 C 8,3 C 83 % 73 % 1021,8 hPa 0,0 l/m 0,2 km/h (0 Bft) SW 225 5 min 17,7 C 29,0 C 0,0 km/h (0 Bft)
06.09.2021 12:55 21,7 C 17,1 C 21,3 C 29,4 C 29,4 C 7,7 C 81 % 75 % 1021,8 hPa 0,0 l/m 0,2 km/h (0 Bft) S-SW 202 5 min 18,3 C 29,4 C 0,0 km/h (0 Bft)
06.09.2021 13:00 22,0 C 17,1 C 21,2 C 29,7 C 29,7 C 7,7 C 79 % 75 % 1021,8 hPa 0,0 l/m 0,0 km/h (0 Bft) W 270 5 min 18,2 C 29,7 C 0,0 km/h (0 Bft)
06.09.2021 13:05 22,2 C 17,1 C 21,0 C 29,7 C 29,7 C 7,5 C 76 % 76 % 1021,8 hPa 0,0 l/m 0,3 km/h (0 Bft) SW 225 5 min 17,8 C 29,7 C 4,8 km/h (1 Bft)
06.09.2021 13:10 22,2 C 17,1 C 21,0 C 29,7 C 29,7 C 7,5 C 76 % 76 % 1021,8 hPa 0,0 l/m 0,3 km/h (0 Bft) SW 225 5 min 17,8 C 29,7 C 0,0 km/h (0 Bft)
06.09.2021 13:15 22,9 C 17,2 C 20,7 C 30,1 C 30,1 C 7,2 C 72 % 75 % 1021,7 hPa 0,0 l/m 0,5 km/h (0 Bft) O-NO 67 5 min 17,6 C 30,1 C 0,0 km/h (0 Bft)
06.09.2021 13:20 22,9 C 17,2 C 20,7 C 30,2 C 30,2 C 7,3 C 71 % 74 % 1021,7 hPa 0,0 l/m 0,5 km/h (0 Bft) O-NO 67 5 min 17,4 C 30,2 C 0,0 km/h (0 Bft)
06.09.2021 13:25 23,3 C 17,2 C 20,7 C 30,7 C 30,7 C 7,4 C 70 % 76 % 1021,7 hPa 0,0 l/m 0,0 km/h (0 Bft) SW 225 5 min 17,5 C 30,7 C 0,0 km/h (0 Bft)
06.09.2021 13:30 23,1 C 17,2 C 20,6 C 30,4 C 30,4 C 7,3 C 68 % 74 % 1021,7 hPa 0,0 l/m 0,5 km/h (0 Bft) SW 225 5 min 16,9 C 30,4 C 0,0 km/h (0 Bft)
06.09.2021 13:35 23,0 C 17,2 C 20,7 C 30,2 C 30,2 C 7,2 C 69 % 76 % 1021,8 hPa 0,0 l/m 0,6 km/h (0 Bft) W-SW 247 5 min 17,0 C 30,2 C 0,0 km/h (0 Bft)
06.09.2021 13:40 23,1 C 17,2 C 20,7 C 30,8 C 30,8 C 7,7 C 69 % 76 % 1021,8 hPa 0,0 l/m 0,3 km/h (0 Bft) SO 135 5 min 17,1 C 30,8 C 0,0 km/h (0 Bft)
06.09.2021 13:45 23,1 C 17,2 C 20,7 C 31,0 C 31,0 C 7,9 C 68 % 76 % 1021,8 hPa 0,0 l/m 0,2 km/h (0 Bft) SW 225 5 min 16,9 C 31,0 C 0,0 km/h (0 Bft)
06.09.2021 13:50 23,1 C 17,3 C 20,8 C 31,0 C 31,0 C 7,9 C 68 % 76 % 1021,8 hPa 0,0 l/m 0,2 km/h (0 Bft) SW 225 5 min 16,9 C 31,0 C 0,0 km/h (0 Bft)
06.09.2021 13:55 23,2 C 17,3 C 20,9 C 31,2 C 31,2 C 8,0 C 67 % 76 % 1021,4 hPa 0,0 l/m 0,2 km/h (0 Bft) SW 225 5 min 16,7 C 31,2 C 0,0 km/h (0 Bft)
06.09.2021 14:00 23,3 C 17,3 C 21,6 C 31,1 C 31,1 C 7,8 C 67 % 76 % 1021,4 hPa 0,0 l/m 0,2 km/h (0 Bft) SW 225 5 min 16,8 C 31,1 C 0,0 km/h (0 Bft)
06.09.2021 14:05 23,2 C 17,3 C 22,4 C 30,2 C 30,2 C 7,0 C 65 % 71 % 1021,4 hPa 0,0 l/m 1,0 km/h (0 Bft) O-SO 112 5 min 16,2 C 30,2 C 1,6 km/h (1 Bft)
06.09.2021 14:10 22,9 C 17,3 C 22,3 C 30,1 C 30,1 C 7,2 C 66 % 70 % 1021,4 hPa 0,0 l/m 1,0 km/h (0 Bft) S-SO 157 5 min 16,2 C 30,1 C 0,0 km/h (0 Bft)
06.09.2021 14:15 23,2 C 17,3 C 21,9 C 30,4 C 30,4 C 7,2 C 65 % 72 % 1021,3 hPa 0,0 l/m 0,6 km/h (0 Bft) S 180 5 min 16,2 C 30,4 C 0,0 km/h (0 Bft)
06.09.2021 14:20 23,5 C 17,3 C 21,8 C 30,5 C 30,5 C 7,0 C 66 % 72 % 1021,3 hPa 0,0 l/m 0,6 km/h (0 Bft) S-SW 202 5 min 16,8 C 30,5 C 0,0 km/h (0 Bft)
06.09.2021 14:25 23,7 C 17,4 C 21,6 C 30,6 C 30,6 C 6,9 C 64 % 71 % 1021,3 hPa 0,0 l/m 0,3 km/h (0 Bft) NO 45 5 min 16,5 C 30,6 C 0,0 km/h (0 Bft)
06.09.2021 14:30 23,9 C 17,4 C 21,6 C 30,8 C 30,8 C 6,9 C 65 % 71 % 1021,3 hPa 0,0 l/m 0,2 km/h (0 Bft) O 90 5 min 16,9 C 30,8 C 0,0 km/h (0 Bft)
06.09.2021 14:35 23,9 C 17,4 C 21,7 C 31,0 C 31,0 C 7,1 C 64 % 70 % 1021,2 hPa 0,0 l/m 0,5 km/h (0 Bft) W-SW 247 5 min 16,7 C 31,0 C 3,1 km/h (1 Bft)
06.09.2021 14:40 23,9 C 17,4 C 21,8 C 31,3 C 31,3 C 7,4 C 64 % 71 % 1021,2 hPa 0,0 l/m 0,6 km/h (0 Bft) W-SW 247 5 min 16,7 C 31,3 C 0,0 km/h (0 Bft)
06.09.2021 14:45 23,7 C 17,3 C 21,8 C 31,5 C 31,5 C 7,8 C 65 % 71 % 1021,2 hPa 0,0 l/m 0,5 km/h (0 Bft) N-NO 22 5 min 16,7 C 31,5 C 2,1 km/h (1 Bft)
06.09.2021 14:50 23,6 C 17,3 C 21,8 C 31,2 C 31,2 C 7,6 C 65 % 72 % 1021,2 hPa 0,0 l/m 0,8 km/h (0 Bft) O-NO 67 5 min 16,6 C 31,2 C 2,7 km/h (1 Bft)
06.09.2021 14:55 23,3 C 17,4 C 21,8 C 30,8 C 30,8 C 7,5 C 66 % 72 % 1021,3 hPa 0,0 l/m 1,0 km/h (0 Bft) SO 135 5 min 16,6 C 30,8 C 0,0 km/h (0 Bft)
06.09.2021 15:00 23,4 C 17,4 C 21,9 C 31,5 C 31,5 C 8,1 C 65 % 71 % 1021,3 hPa 0,0 l/m 0,5 km/h (0 Bft) W-NW 292 5 min 16,4 C 31,5 C 3,7 km/h (1 Bft)
06.09.2021 15:05 23,3 C 17,4 C 22,0 C 31,5 C 31,5 C 8,2 C 64 % 69 % 1021,3 hPa 0,0 l/m 0,6 km/h (0 Bft) O-NO 67 5 min 16,1 C 31,5 C 0,0 km/h (0 Bft)
06.09.2021 15:10 23,3 C 17,4 C 21,9 C 31,6 C 31,6 C 8,3 C 64 % 68 % 1021,3 hPa 0,0 l/m 1,1 km/h (1 Bft) W 270 5 min 16,1 C 31,6 C 5,5 km/h (1 Bft)
06.09.2021 15:15 23,4 C 17,4 C 22,1 C 31,3 C 31,3 C 7,9 C 62 % 68 % 1021,1 hPa 0,0 l/m 1,6 km/h (1 Bft) SW 225 5 min 15,7 C 31,3 C 6,6 km/h (2 Bft)
06.09.2021 15:20 23,5 C 17,5 C 22,1 C 31,2 C 31,2 C 7,7 C 62 % 68 % 1021,1 hPa 0,0 l/m 1,6 km/h (1 Bft) W-SW 247 5 min 15,8 C 31,2 C 0,0 km/h (0 Bft)
06.09.2021 15:25 23,5 C 17,5 C 22,1 C 31,4 C 31,4 C 7,9 C 60 % 65 % 1021,1 hPa 0,0 l/m 1,0 km/h (0 Bft) NW 315 5 min 15,3 C 31,4 C 3,9 km/h (1 Bft)
06.09.2021 15:30 23,6 C 17,5 C 22,2 C 31,2 C 31,2 C 7,6 C 59 % 65 % 1021,1 hPa 0,0 l/m 1,1 km/h (1 Bft) W-SW 247 5 min 15,1 C 31,2 C 0,0 km/h (0 Bft)
06.09.2021 15:35 23,7 C 17,5 C 22,2 C 31,1 C 31,1 C 7,4 C 59 % 66 % 1021,0 hPa 0,0 l/m 1,0 km/h (0 Bft) S-SW 202 5 min 15,2 C 31,1 C 1,8 km/h (1 Bft)
06.09.2021 15:40 23,7 C 17,5 C 22,4 C 31,1 C 31,1 C 7,4 C 59 % 66 % 1021,0 hPa 0,0 l/m 0,5 km/h (0 Bft) SW 225 5 min 15,2 C 31,1 C 0,0 km/h (0 Bft)
06.09.2021 15:45 23,8 C 17,5 C 22,5 C 31,3 C 31,3 C 7,5 C 59 % 66 % 1021,0 hPa 0,0 l/m 0,5 km/h (0 Bft) S-SW 202 5 min 15,3 C 31,3 C 1,8 km/h (1 Bft)
06.09.2021 15:50 24,0 C 17,6 C 22,7 C 31,6 C 31,6 C 7,6 C 60 % 67 % 1021,0 hPa 0,0 l/m 0,3 km/h (0 Bft) SW 225 5 min 15,7 C 31,6 C 1,6 km/h (1 Bft)
06.09.2021 15:55 24,1 C 17,6 C 22,9 C 32,0 C 32,0 C 7,9 C 59 % 66 % 1021,1 hPa 0,0 l/m 0,8 km/h (0 Bft) SW 225 5 min 15,6 C 32,0 C 0,0 km/h (0 Bft)
06.09.2021 16:00 24,2 C 17,6 C 22,9 C 31,8 C 31,8 C 7,6 C 58 % 65 % 1021,1 hPa 0,0 l/m 0,8 km/h (0 Bft) W 270 5 min 15,4 C 31,8 C 1,9 km/h (1 Bft)
06.09.2021 16:05 24,2 C 17,6 C 22,9 C 31,4 C 31,4 C 7,2 C 58 % 65 % 1021,1 hPa 0,0 l/m 0,6 km/h (0 Bft) SW 225 5 min 15,4 C 31,4 C 1,6 km/h (1 Bft)
06.09.2021 16:10 24,3 C 17,6 C 22,8 C 31,1 C 31,1 C 6,8 C 58 % 64 % 1021,1 hPa 0,0 l/m 0,8 km/h (0 Bft) S 180 5 min 15,5 C 31,1 C 0,0 km/h (0 Bft)
06.09.2021 16:15 24,3 C 17,7 C 22,7 C 30,1 C 30,1 C 5,8 C 59 % 65 % 1020,9 hPa 0,0 l/m 0,6 km/h (0 Bft) S-SO 157 5 min 15,8 C 30,1 C 0,0 km/h (0 Bft)
06.09.2021 16:20 24,3 C 17,7 C 22,7 C 29,2 C 29,2 C 4,9 C 58 % 65 % 1020,9 hPa 0,0 l/m 0,5 km/h (0 Bft) S 180 5 min 15,5 C 29,2 C 1,9 km/h (1 Bft)
06.09.2021 16:25 24,2 C 17,7 C 22,6 C 28,1 C 28,1 C 3,9 C 58 % 65 % 1020,9 hPa 0,0 l/m 0,6 km/h (0 Bft) W 270 5 min 15,4 C 28,1 C 0,0 km/h (0 Bft)
06.09.2021 16:30 24,2 C 17,7 C 22,5 C 27,7 C 27,7 C 3,5 C 58 % 66 % 1020,9 hPa 0,0 l/m 0,5 km/h (0 Bft) W 270 5 min 15,4 C 27,7 C 0,0 km/h (0 Bft)
06.09.2021 16:35 24,3 C 17,7 C 22,5 C 26,7 C 26,7 C 2,4 C 59 % 65 % 1020,8 hPa 0,0 l/m 0,0 km/h (0 Bft) W-NW 292 0 min 15,8 C 26,7 C 0,0 km/h (0 Bft)
06.09.2021 16:40 24,2 C 17,7 C 22,5 C 26,4 C 26,4 C 2,2 C 58 % 64 % 1020,8 hPa 0,0 l/m 0,6 km/h (0 Bft) SW 225 0 min 15,4 C 26,4 C 1,9 km/h (1 Bft)
06.09.2021 16:45 24,2 C 17,8 C 22,7 C 26,0 C 26,0 C 1,8 C 58 % 64 % 1020,8 hPa 0,0 l/m 1,1 km/h (1 Bft) W-SW 247 0 min 15,4 C 26,0 C 0,0 km/h (0 Bft)
06.09.2021 16:50 24,3 C 17,8 C 22,7 C 25,8 C 25,8 C 1,5 C 59 % 64 % 1020,8 hPa 0,0 l/m 1,0 km/h (0 Bft) SW 225 0 min 15,8 C 25,8 C 0,0 km/h (0 Bft)
06.09.2021 16:55 24,4 C 17,8 C 22,7 C 25,6 C 25,6 C 1,2 C 58 % 64 % 1020,8 hPa 0,0 l/m 0,5 km/h (0 Bft) NW 315 0 min 15,6 C 25,6 C 0,0 km/h (0 Bft)
06.09.2021 17:00 24,4 C 17,8 C 22,6 C 25,4 C 25,4 C 1,0 C 58 % 65 % 1020,8 hPa 0,0 l/m 0,2 km/h (0 Bft) W-SW 247 0 min 15,6 C 25,4 C 0,0 km/h (0 Bft)
06.09.2021 17:05 24,5 C 17,8 C 22,5 C 25,2 C 25,2 C 0,7 C 59 % 65 % 1020,8 hPa 0,0 l/m 0,2 km/h (0 Bft) NW 315 0 min 15,9 C 25,2 C 0,0 km/h (0 Bft)
06.09.2021 17:10 24,5 C 17,8 C 22,5 C 25,1 C 25,1 C 0,6 C 58 % 65 % 1020,8 hPa 0,0 l/m 0,5 km/h (0 Bft) W-SW 247 0 min 15,7 C 25,1 C 0,0 km/h (0 Bft)
06.09.2021 17:15 24,5 C 17,8 C 22,3 C 24,9 C 24,9 C 0,4 C 58 % 67 % 1020,8 hPa 0,0 l/m 0,3 km/h (0 Bft) W-SW 247 0 min 15,7 C 24,9 C 0,0 km/h (0 Bft)
06.09.2021 17:20 24,5 C 17,9 C 22,4 C 24,8 C 24,8 C 0,3 C 58 % 66 % 1020,8 hPa 0,0 l/m 0,2 km/h (0 Bft) SW 225 0 min 15,7 C 24,8 C 0,0 km/h (0 Bft)
06.09.2021 17:25 24,5 C 17,9 C 22,3 C 24,7 C 24,7 C 0,2 C 58 % 66 % 1020,8 hPa 0,0 l/m 0,0 km/h (0 Bft) W 270 0 min 15,7 C 24,7 C 1,9 km/h (1 Bft)
06.09.2021 17:30 24,4 C 17,9 C 22,2 C 24,6 C 24,6 C 0,2 C 58 % 67 % 1020,8 hPa 0,0 l/m 0,0 km/h (0 Bft) S 180 0 min 15,6 C 24,6 C 0,0 km/h (0 Bft)
06.09.2021 17:35 24,4 C 17,9 C 22,2 C 24,4 C 24,4 C 0,0 C 58 % 66 % 1020,8 hPa 0,0 l/m 0,0 km/h (0 Bft) W-NW 292 0 min 15,6 C 24,4 C 0,0 km/h (0 Bft)
06.09.2021 17:40 24,3 C 17,9 C 22,1 C 24,3 C 24,3 C 0,0 C 59 % 67 % 1020,8 hPa 0,0 l/m 0,0 km/h (0 Bft) N-NO 22 0 min 15,8 C 24,3 C 0,0 km/h (0 Bft)
06.09.2021 17:45 24,3 C 18,0 C 22,2 C 24,3 C 24,3 C 0,0 C 58 % 68 % 1020,8 hPa 0,0 l/m 0,2 km/h (0 Bft) W-SW 247 0 min 15,5 C 24,3 C 0,0 km/h (0 Bft)
06.09.2021 17:50 24,2 C 18,0 C 22,0 C 24,3 C 24,3 C 0,1 C 58 % 67 % 1020,8 hPa 0,0 l/m 0,2 km/h (0 Bft) W-SW 247 0 min 15,4 C 24,3 C 0,0 km/h (0 Bft)
06.09.2021 17:55 24,0 C 18,0 C 21,9 C 24,2 C 24,2 C 0,2 C 58 % 66 % 1020,5 hPa 0,0 l/m 0,6 km/h (0 Bft) NW 315 0 min 15,2 C 24,2 C 0,0 km/h (0 Bft)
06.09.2021 18:00 23,9 C 18,0 C 21,9 C 24,2 C 24,2 C 0,3 C 58 % 65 % 1020,5 hPa 0,0 l/m 1,1 km/h (1 Bft) NW 315 0 min 15,1 C 24,2 C 3,2 km/h (1 Bft)
06.09.2021 18:05 23,6 C 18,0 C 21,5 C 23,6 C 23,5 C 0,0 C 61 % 68 % 1020,5 hPa 0,0 l/m 0,6 km/h (0 Bft) NW 315 0 min 15,6 C 23,5 C 0,0 km/h (0 Bft)
06.09.2021 18:10 23,3 C 18,0 C 21,3 C 23,2 C 23,1 C 0,0 C 61 % 69 % 1020,5 hPa 0,0 l/m 0,3 km/h (0 Bft) NW 315 0 min 15,3 C 23,1 C 0,0 km/h (0 Bft)
06.09.2021 18:15 22,9 C 18,0 C 20,8 C 22,8 C 22,5 C 0,0 C 63 % 71 % 1020,6 hPa 0,0 l/m 0,0 km/h (0 Bft) NW 315 0 min 15,5 C 22,5 C 0,0 km/h (0 Bft)
06.09.2021 18:20 22,7 C 18,0 C 20,5 C 22,5 C 22,1 C 0,0 C 64 % 71 % 1020,6 hPa 0,0 l/m 0,0 km/h (0 Bft) NW 315 0 min 15,5 C 22,1 C 0,0 km/h (0 Bft)
06.09.2021 18:25 22,3 C 18,2 C 20,3 C 22,1 C 21,8 C 0,0 C 65 % 73 % 1020,6 hPa 0,0 l/m 0,0 km/h (0 Bft) NW 315 0 min 15,4 C 21,8 C 0,0 km/h (0 Bft)
06.09.2021 18:30 22,1 C 18,2 C 20,1 C 21,9 C 21,6 C 0,0 C 67 % 74 % 1020,6 hPa 0,0 l/m 0,0 km/h (0 Bft) NW 315 0 min 15,7 C 21,6 C 0,0 km/h (0 Bft)
06.09.2021 18:35 21,9 C 18,2 C 19,9 C 21,7 C 21,2 C 0,0 C 68 % 76 % 1020,8 hPa 0,0 l/m 0,0 km/h (0 Bft) NW 315 0 min 15,7 C 21,2 C 0,0 km/h (0 Bft)
06.09.2021 18:40 21,7 C 18,2 C 19,9 C 21,5 C 21,0 C 0,0 C 68 % 76 % 1020,8 hPa 0,0 l/m 0,0 km/h (0 Bft) NW 315 0 min 15,5 C 21,0 C 0,0 km/h (0 Bft)
06.09.2021 18:45 21,5 C 18,2 C 19,6 C 21,3 C 20,8 C 0,0 C 70 % 77 % 1020,8 hPa 0,0 l/m 0,0 km/h (0 Bft) NW 315 0 min 15,8 C 20,8 C 0,0 km/h (0 Bft)
06.09.2021 18:50 21,2 C 18,2 C 19,5 C 21,0 C 20,6 C 0,0 C 71 % 77 % 1020,8 hPa 0,0 l/m 0,0 km/h (0 Bft) NW 315 0 min 15,7 C 20,6 C 0,0 km/h (0 Bft)
06.09.2021 18:55 21,1 C 18,3 C 19,3 C 20,9 C 20,4 C 0,0 C 72 % 78 % 1020,6 hPa 0,0 l/m 0,0 km/h (0 Bft) NW 315 0 min 15,8 C 20,4 C 0,0 km/h (0 Bft)
06.09.2021 19:00 20,9 C 18,3 C 19,2 C 20,7 C 20,2 C 0,0 C 73 % 79 % 1020,6 hPa 0,0 l/m 0,0 km/h (0 Bft) NW 315 0 min 15,9 C 20,2 C 0,0 km/h (0 Bft)
06.09.2021 19:05 20,7 C 18,3 C 19,1 C 20,4 C 19,9 C 0,0 C 74 % 80 % 1020,6 hPa 0,0 l/m 0,0 km/h (0 Bft) NW 315 0 min 15,9 C 19,9 C 0,0 km/h (0 Bft)
06.09.2021 19:10 20,4 C 18,4 C 18,9 C 20,2 C 19,7 C 0,0 C 74 % 81 % 1020,6 hPa 0,0 l/m 0,0 km/h (0 Bft) NW 315 0 min 15,6 C 19,7 C 0,0 km/h (0 Bft)
06.09.2021 19:15 20,2 C 18,4 C 18,7 C 19,9 C 19,3 C 0,0 C 75 % 81 % 1020,9 hPa 0,0 l/m 0,0 km/h (0 Bft) NW 315 0 min 15,6 C 19,3 C 0,0 km/h (0 Bft)
06.09.2021 19:20 20,1 C 18,4 C 18,6 C 19,7 C 19,0 C 0,0 C 76 % 82 % 1020,9 hPa 0,0 l/m 0,0 km/h (0 Bft) NW 315 0 min 15,7 C 19,0 C 0,0 km/h (0 Bft)
06.09.2021 19:25 19,8 C 18,4 C 18,4 C 19,4 C 18,7 C 0,0 C 77 % 83 % 1020,9 hPa 0,0 l/m 0,0 km/h (0 Bft) NW 315 0 min 15,6 C 18,7 C 0,0 km/h (0 Bft)
06.09.2021 19:30 19,7 C 18,5 C 18,3 C 19,3 C 18,5 C 0,0 C 77 % 83 % 1020,9 hPa 0,0 l/m 0,0 km/h (0 Bft) NW 315 0 min 15,5 C 18,5 C 0,0 km/h (0 Bft)
06.09.2021 19:35 19,5 C 18,5 C 18,0 C 19,1 C 18,2 C 0,0 C 78 % 83 % 1020,6 hPa 0,0 l/m 0,0 km/h (0 Bft) NW 315 0 min 15,6 C 18,2 C 0,0 km/h (0 Bft)
06.09.2021 19:40 19,3 C 18,5 C 17,9 C 18,9 C 18,0 C 0,0 C 78 % 84 % 1020,6 hPa 0,0 l/m 0,0 km/h (0 Bft) NW 315 0 min 15,4 C 18,0 C 0,0 km/h (0 Bft)
06.09.2021 19:45 19,1 C 18,5 C 17,7 C 18,6 C 17,6 C 0,0 C 78 % 85 % 1020,6 hPa 0,0 l/m 0,0 km/h (0 Bft) NW 315 0 min 15,2 C 17,6 C 0,0 km/h (0 Bft)
06.09.2021 19:50 19,0 C 18,5 C 17,6 C 18,4 C 17,3 C 0,0 C 79 % 85 % 1020,6 hPa 0,0 l/m 0,0 km/h (0 Bft) NW 315 0 min 15,3 C 17,3 C 0,0 km/h (0 Bft)
06.09.2021 19:55 18,7 C 18,6 C 17,3 C 18,2 C 17,2 C 0,0 C 80 % 86 % 1020,6 hPa 0,0 l/m 0,0 km/h (0 Bft) NW 315 0 min 15,2 C 17,2 C 0,0 km/h (0 Bft)
06.09.2021 20:00 18,6 C 18,6 C 17,3 C 18,1 C 17,0 C 0,0 C 80 % 86 % 1020,6 hPa 0,0 l/m 0,0 km/h (0 Bft) NW 315 0 min 15,1 C 17,0 C 0,0 km/h (0 Bft)
06.09.2021 20:05 18,4 C 18,6 C 17,1 C 17,9 C 16,8 C 0,0 C 81 % 86 % 1020,6 hPa 0,0 l/m 0,0 km/h (0 Bft) NW 315 0 min 15,1 C 16,8 C 0,0 km/h (0 Bft)
06.09.2021 20:10 18,3 C 18,6 C 17,0 C 17,8 C 16,7 C 0,0 C 81 % 86 % 1020,6 hPa 0,0 l/m 0,0 km/h (0 Bft) NW 315 0 min 15,0 C 16,7 C 0,0 km/h (0 Bft)
06.09.2021 20:15 18,1 C 18,7 C 16,8 C 17,5 C 16,4 C 0,0 C 81 % 87 % 1020,8 hPa 0,0 l/m 0,0 km/h (0 Bft) NW 315 0 min 14,8 C 16,4 C 0,0 km/h (0 Bft)
06.09.2021 20:20 17,9 C 18,7 C 16,7 C 17,4 C 16,3 C 0,0 C 81 % 87 % 1020,8 hPa 0,0 l/m 0,0 km/h (0 Bft) NW 315 0 min 14,6 C 16,3 C 0,0 km/h (0 Bft)
06.09.2021 20:25 17,7 C 18,7 C 16,6 C 17,2 C 16,2 C 0,0 C 82 % 87 % 1020,8 hPa 0,0 l/m 0,0 km/h (0 Bft) NW 315 0 min 14,6 C 16,2 C 0,0 km/h (0 Bft)
06.09.2021 20:30 17,7 C 18,7 C 16,5 C 17,2 C 16,1 C 0,0 C 82 % 88 % 1020,8 hPa 0,0 l/m 0,0 km/h (0 Bft) NW 315 0 min 14,6 C 16,1 C 0,0 km/h (0 Bft)
06.09.2021 20:35 17,5 C 18,7 C 16,4 C 17,0 C 16,0 C 0,0 C 83 % 88 % 1020,8 hPa 0,0 l/m 0,0 km/h (0 Bft) NW 315 0 min 14,6 C 16,0 C 0,0 km/h (0 Bft)
06.09.2021 20:40 17,4 C 18,7 C 16,3 C 16,9 C 16,0 C 0,0 C 83 % 88 % 1020,8 hPa 0,0 l/m 0,0 km/h (0 Bft) NW 315 0 min 14,5 C 16,0 C 0,0 km/h (0 Bft)
06.09.2021 20:45 17,3 C 18,7 C 16,3 C 16,8 C 15,8 C 0,0 C 83 % 88 % 1020,8 hPa 0,0 l/m 0,0 km/h (0 Bft) NW 315 0 min 14,4 C 15,8 C 0,0 km/h (0 Bft)
06.09.2021 20:50 17,1 C 18,7 C 16,2 C 16,7 C 15,8 C 0,0 C 84 % 89 % 1020,8 hPa 0,0 l/m 0,0 km/h (0 Bft) NW 315 0 min 14,4 C 15,8 C 0,0 km/h (0 Bft)
06.09.2021 20:55 17,0 C 18,7 C 16,1 C 16,5 C 15,6 C 0,0 C 84 % 89 % 1020,9 hPa 0,0 l/m 0,0 km/h (0 Bft) NW 315 0 min 14,3 C 15,6 C 0,0 km/h (0 Bft)
06.09.2021 21:00 16,9 C 18,8 C 16,1 C 16,5 C 15,6 C 0,0 C 84 % 89 % 1020,9 hPa 0,0 l/m 0,0 km/h (0 Bft) NW 315 0 min 14,2 C 15,6 C 0,0 km/h (0 Bft)
06.09.2021 21:05 16,8 C 18,7 C 16,0 C 16,4 C 15,5 C 0,0 C 84 % 90 % 1020,9 hPa 0,0 l/m 0,0 km/h (0 Bft) NW 315 0 min 14,1 C 15,5 C 0,0 km/h (0 Bft)
06.09.2021 21:10 16,7 C 18,7 C 15,9 C 16,2 C 15,3 C 0,0 C 84 % 89 % 1020,9 hPa 0,0 l/m 0,0 km/h (0 Bft) NW 315 0 min 14,0 C 15,3 C 0,0 km/h (0 Bft)
06.09.2021 21:15 16,6 C 18,7 C 15,8 C 16,1 C 15,2 C 0,0 C 85 % 89 % 1021,0 hPa 0,0 l/m 0,0 km/h (0 Bft) NW 315 0 min 14,1 C 15,2 C 0,0 km/h (0 Bft)
06.09.2021 21:20 16,5 C 18,7 C 15,7 C 16,1 C 15,2 C 0,0 C 85 % 90 % 1021,0 hPa 0,0 l/m 0,0 km/h (0 Bft) NW 315 0 min 14,0 C 15,2 C 0,0 km/h (0 Bft)
06.09.2021 21:25 16,4 C 18,8 C 15,5 C 15,9 C 15,0 C 0,0 C 85 % 90 % 1021,0 hPa 0,0 l/m 0,0 km/h (0 Bft) NW 315 0 min 13,9 C 15,0 C 0,0 km/h (0 Bft)
06.09.2021 21:30 16,3 C 18,8 C 15,5 C 15,8 C 14,9 C 0,0 C 85 % 90 % 1021,0 hPa 0,0 l/m 0,0 km/h (0 Bft) NW 315 0 min 13,8 C 14,9 C 0,0 km/h (0 Bft)
06.09.2021 21:35 16,1 C 18,7 C 15,4 C 15,6 C 14,7 C 0,0 C 85 % 90 % 1020,9 hPa 0,0 l/m 0,0 km/h (0 Bft) NW 315 0 min 13,6 C 14,7 C 0,0 km/h (0 Bft)
06.09.2021 21:40 16,0 C 18,7 C 15,3 C 15,5 C 14,6 C 0,0 C 85 % 90 % 1020,9 hPa 0,0 l/m 0,0 km/h (0 Bft) NW 315 0 min 13,5 C 14,6 C 0,0 km/h (0 Bft)
06.09.2021 21:45 15,8 C 18,8 C 15,1 C 15,4 C 14,6 C 0,0 C 85 % 90 % 1020,9 hPa 0,0 l/m 0,0 km/h (0 Bft) NW 315 0 min 13,3 C 14,6 C 0,0 km/h (0 Bft)
06.09.2021 21:50 15,7 C 18,9 C 15,0 C 15,3 C 14,5 C 0,0 C 86 % 90 % 1020,9 hPa 0,0 l/m 0,0 km/h (0 Bft) NW 315 0 min 13,4 C 14,5 C 0,0 km/h (0 Bft)
06.09.2021 21:55 15,6 C 18,8 C 15,0 C 15,2 C 14,4 C 0,0 C 86 % 90 % 1020,6 hPa 0,0 l/m 0,0 km/h (0 Bft) NW 315 0 min 13,3 C 14,4 C 0,0 km/h (0 Bft)
06.09.2021 22:00 15,5 C 18,7 C 14,8 C 15,1 C 14,3 C 0,0 C 86 % 90 % 1020,6 hPa 0,0 l/m 0,0 km/h (0 Bft) NW 315 0 min 13,2 C 14,3 C 0,0 km/h (0 Bft)
06.09.2021 22:05 15,3 C 18,7 C 14,8 C 14,9 C 14,0 C 0,0 C 86 % 91 % 1020,6 hPa 0,0 l/m 0,0 km/h (0 Bft) NW 315 0 min 13,0 C 14,0 C 0,0 km/h (0 Bft)
06.09.2021 22:10 15,2 C 18,7 C 14,7 C 14,8 C 14,0 C 0,0 C 86 % 91 % 1020,6 hPa 0,0 l/m 0,0 km/h (0 Bft) NW 315 0 min 12,9 C 14,0 C 0,0 km/h (0 Bft)
06.09.2021 22:15 15,1 C 18,7 C 14,7 C 14,7 C 13,9 C 0,0 C 86 % 91 % 1020,7 hPa 0,0 l/m 0,0 km/h (0 Bft) NW 315 0 min 12,8 C 13,9 C 0,0 km/h (0 Bft)
06.09.2021 22:20 15,0 C 18,7 C 14,6 C 14,6 C 13,9 C 0,0 C 86 % 91 % 1020,7 hPa 0,0 l/m 0,0 km/h (0 Bft) NW 315 0 min 12,7 C 13,9 C 0,0 km/h (0 Bft)
06.09.2021 22:25 14,9 C 18,8 C 14,6 C 14,6 C 14,0 C 0,0 C 86 % 91 % 1020,7 hPa 0,0 l/m 0,0 km/h (0 Bft) NW 315 0 min 12,6 C 14,0 C 0,0 km/h (0 Bft)
06.09.2021 22:30 14,8 C 18,8 C 14,6 C 14,5 C 14,0 C 0,0 C 86 % 91 % 1020,7 hPa 0,0 l/m 0,0 km/h (0 Bft) NW 315 0 min 12,5 C 14,0 C 0,0 km/h (0 Bft)
06.09.2021 22:35 14,8 C 18,8 C 14,5 C 14,5 C 14,0 C 0,0 C 86 % 91 % 1020,8 hPa 0,0 l/m 0,0 km/h (0 Bft) NW 315 0 min 12,5 C 14,0 C 0,0 km/h (0 Bft)
06.09.2021 22:40 14,7 C 18,8 C 14,5 C 14,5 C 14,0 C 0,0 C 86 % 92 % 1020,8 hPa 0,0 l/m 0,0 km/h (0 Bft) NW 315 0 min 12,4 C 14,0 C 0,0 km/h (0 Bft)
06.09.2021 22:45 14,7 C 18,8 C 14,5 C 14,5 C 14,0 C 0,0 C 86 % 92 % 1020,8 hPa 0,0 l/m 0,0 km/h (0 Bft) NW 315 0 min 12,4 C 14,0 C 0,0 km/h (0 Bft)
06.09.2021 22:50 14,5 C 18,7 C 14,5 C 14,4 C 14,1 C 0,0 C 87 % 92 % 1020,8 hPa 0,0 l/m 0,0 km/h (0 Bft) NW 315 0 min 12,4 C 14,1 C 0,0 km/h (0 Bft)
06.09.2021 22:55 14,4 C 18,7 C 14,5 C 14,3 C 14,2 C 0,0 C 86 % 92 % 1020,7 hPa 0,0 l/m 0,0 km/h (0 Bft) NW 315 0 min 12,1 C 14,2 C 0,0 km/h (0 Bft)
06.09.2021 23:00 14,4 C 18,7 C 14,5 C 14,3 C 14,2 C 0,0 C 86 % 92 % 1020,7 hPa 0,0 l/m 0,0 km/h (0 Bft) NW 315 0 min 12,1 C 14,2 C 0,0 km/h (0 Bft)
06.09.2021 23:05 14,4 C 18,7 C 14,5 C 14,3 C 14,2 C 0,0 C 86 % 92 % 1020,7 hPa 0,0 l/m 0,0 km/h (0 Bft) NW 315 0 min 12,1 C 14,2 C 0,0 km/h (0 Bft)
06.09.2021 23:10 14,3 C 18,7 C 14,5 C 14,3 C 14,2 C 0,0 C 86 % 92 % 1020,7 hPa 0,0 l/m 0,0 km/h (0 Bft) NW 315 0 min 12,0 C 14,2 C 0,0 km/h (0 Bft)
06.09.2021 23:15 14,3 C 18,7 C 14,5 C 14,3 C 14,2 C 0,0 C 86 % 92 % 1020,7 hPa 0,0 l/m 0,0 km/h (0 Bft) NW 315 0 min 12,0 C 14,2 C 0,0 km/h (0 Bft)
06.09.2021 23:20 14,2 C 18,7 C 14,5 C 14,3 C 14,3 C 0,1 C 86 % 92 % 1020,7 hPa 0,0 l/m 0,0 km/h (0 Bft) NW 315 0 min 11,9 C 14,3 C 0,0 km/h (0 Bft)
06.09.2021 23:25 14,1 C 18,7 C 14,4 C 14,2 C 14,2 C 0,1 C 86 % 92 % 1020,7 hPa 0,0 l/m 0,0 km/h (0 Bft) NW 315 0 min 11,8 C 14,2 C 0,0 km/h (0 Bft)
06.09.2021 23:30 14,0 C 18,7 C 14,3 C 14,0 C 14,0 C 0,0 C 86 % 92 % 1020,7 hPa 0,0 l/m 0,0 km/h (0 Bft) NW 315 0 min 11,7 C 14,0 C 0,0 km/h (0 Bft)
06.09.2021 23:35 14,0 C 18,7 C 14,3 C 14,0 C 13,9 C 0,0 C 86 % 92 % 1020,7 hPa 0,0 l/m 0,0 km/h (0 Bft) NW 315 0 min 11,7 C 13,9 C 0,0 km/h (0 Bft)
06.09.2021 23:40 13,9 C 18,7 C 14,3 C 13,9 C 13,8 C 0,0 C 86 % 92 % 1020,7 hPa 0,0 l/m 0,0 km/h (0 Bft) NW 315 0 min 11,6 C 13,8 C 0,0 km/h (0 Bft)
06.09.2021 23:45 13,9 C 18,7 C 14,2 C 13,8 C 13,6 C 0,0 C 86 % 92 % 1020,7 hPa 0,0 l/m 0,0 km/h (0 Bft) NW 315 0 min 11,6 C 13,6 C 0,0 km/h (0 Bft)
06.09.2021 23:50 13,9 C 18,7 C 14,1 C 13,8 C 13,7 C 0,0 C 86 % 92 % 1020,7 hPa 0,0 l/m 0,0 km/h (0 Bft) NW 315 0 min 11,6 C 13,7 C 0,0 km/h (0 Bft)
06.09.2021 23:55 13,7 C 18,7 C 14,1 C 13,7 C 13,6 C 0,0 C 86 % 92 % 1021,0 hPa 0,0 l/m 0,0 km/h (0 Bft) NW 315 0 min 11,4 C 13,6 C 0,0 km/h (0 Bft)
_ Min-Zeit 04:25 12:50 03:30 02:55 02:55 17:35 16:00 16:10 02:35 - 00:00 - - - 04:25 02:55 00:00
Minimum _ 9,8 C 17,1 C 11,4 C 10,8 C 10,8 C 0,0 C 58 % 64 % 1020,0 hPa - 0,0 km/h (0 Bft) - - - 7,7 C 10,8 C 0,0 km/h (0 Bft)
_ Max-Zeit 17:05 21:50 12:20 15:55 15:55 15:10 08:35 03:15 11:15 00:00 15:15 - - 06:45 12:55 15:55 15:15
Maximum _ 24,5 C 18,9 C 24,8 C 32,0 C 32,0 C 8,3 C 88 % 94 % 1022,4 hPa 0,0 l/m 1,6 km/h
SW (1 Bft)
- - 5 min 18,3 C 32,0 C 6,6 km/h
SW (2 Bft)
Durchschnitt _ 15,8 C 17,9 C 16,2 C 18,0 C 17,8 C 2,2 C 80 % 86 % 1021,0 hPa #0,0 l/m 0,1 km/h (0 Bft) W-SW - #7:50 h 12,2 C 17,8 C 0,2 km/h (0 Bft)
2021 www.wetterstation-wechselburg.de